Time;durP1;ratioP1;P1;durP2;ratioP2;P2;SDS_P1;SDS_P2;PMS_P1;PMS_P2;Temp;Humidity;BMP_temperature;BMP_pressure;BME280_temperature;BME280_humidity;BME280_pressure;Samples;Min_cycle;Max_cycle;Signal;HPM_P1;HPM_P2
2022/03/02 00:01:20;;;;;;;;;46.75;38.25;;;;;12.33;46.39;102033.41;5068312;28;55623;-77
2022/03/02 00:03:45;;;;;;;;;46.50;38.00;;;;;12.32;46.57;102030.75;5065910;28;48044;-77
2022/03/02 00:06:14;;;;;;;;;52.00;39.75;;;;;12.27;46.36;102025.34;5069345;28;45602;-77
2022/03/02 00:08:39;;;;;;;;;54.50;41.25;;;;;12.30;46.67;102028.06;5076396;28;45302;-78
2022/03/02 00:11:05;;;;;;;;;56.25;40.00;;;;;12.30;46.54;102029.78;5076313;28;51679;-77
2022/03/02 00:13:30;;;;;;;;;53.75;36.00;;;;;12.29;46.77;102031.53;5073700;28;61996;-78
2022/03/02 00:15:56;;;;;;;;;48.00;37.50;;;;;12.28;46.67;102020.94;5072445;28;45512;-78
2022/03/02 00:18:22;;;;;;;;;51.25;40.00;;;;;12.24;46.75;102013.75;5072674;28;54199;-78
2022/03/02 00:20:47;;;;;;;;;51.00;39.50;;;;;12.25;46.84;102016.47;5069474;28;45374;-78
2022/03/02 00:23:13;;;;;;;;;56.50;43.00;;;;;12.20;46.71;102009.28;5067567;28;46913;-78
2022/03/02 00:25:38;;;;;;;;;52.50;38.50;;;;;12.24;46.84;102013.75;5067638;28;45346;-78
2022/03/02 00:28:04;;;;;;;;;58.50;42.00;;;;;12.23;46.98;102004.94;5075359;28;56766;-77
2022/03/02 00:30:30;;;;;;;;;55.25;42.25;;;;;12.22;47.00;102003.16;5073210;28;56219;-77
2022/03/02 00:32:56;;;;;;;;;52.50;39.50;;;;;12.17;46.95;101998.59;5067380;28;47157;-77
2022/03/02 00:35:21;;;;;;;;;55.25;41.00;;;;;12.18;47.02;101995.97;5073620;28;45492;-78
2022/03/02 00:37:46;;;;;;;;;51.50;40.00;;;;;12.21;47.03;102003.13;5067524;28;56880;-77
2022/03/02 00:40:12;;;;;;;;;52.00;38.00;;;;;12.20;47.31;102007.53;5075858;28;45865;-77
2022/03/02 00:42:39;;;;;;;;;46.75;38.50;;;;;12.20;46.93;102004.00;5067153;28;46980;-77
2022/03/02 00:45:05;;;;;;;;;53.75;42.00;;;;;12.19;46.60;102008.34;5050308;28;61496;-77
2022/03/02 00:47:31;;;;;;;;;53.50;40.50;;;;;12.18;46.86;102006.56;5073982;28;45537;-77
2022/03/02 00:49:59;;;;;;;;;52.00;38.00;;;;;12.17;47.00;102011.84;5047271;28;45399;-77
2022/03/02 00:52:25;;;;;;;;;49.50;39.75;;;;;12.16;47.12;102008.31;5070845;28;46449;-77
2022/03/02 00:54:50;;;;;;;;;53.25;40.25;;;;;12.15;47.14;102010.94;5074512;28;45562;-77
2022/03/02 00:57:15;;;;;;;;;54.75;41.75;;;;;12.10;47.23;101999.34;5075486;28;45813;-77
2022/03/02 00:59:42;;;;;;;;;55.50;43.00;;;;;12.12;47.20;102008.19;5054886;28;46612;-77
2022/03/02 01:02:11;;;;;;;;;52.75;41.50;;;;;12.09;47.36;101998.44;5067827;28;60801;-77
2022/03/02 01:04:36;;;;;;;;;52.50;41.50;;;;;12.09;47.36;102005.47;5060880;28;45363;-77
2022/03/02 01:07:02;;;;;;;;;53.00;41.00;;;;;12.08;47.46;102009.88;5068598;28;58864;-77
2022/03/02 01:09:27;;;;;;;;;51.75;40.25;;;;;12.05;47.42;102002.75;5076263;28;45791;-77
2022/03/02 01:11:54;;;;;;;;;51.25;40.25;;;;;12.04;47.47;102000.97;5076583;28;47621;-78
2022/03/02 01:14:20;;;;;;;;;48.00;38.00;;;;;12.03;47.47;101998.25;5056424;28;45522;-77
2022/03/02 01:16:45;;;;;;;;;51.75;41.25;;;;;12.00;47.67;101996.47;5076625;28;55587;-77
2022/03/02 01:19:11;;;;;;;;;49.75;41.00;;;;;12.03;47.58;101998.25;5076542;28;49102;-77
2022/03/02 01:21:36;;;;;;;;;51.00;40.25;;;;;11.98;47.44;101984.91;5077088;28;51463;-77
2022/03/02 01:24:02;;;;;;;;;54.25;40.00;;;;;12.02;47.63;101994.72;5070572;28;45201;-77
2022/03/02 01:26:29;;;;;;;;;55.00;43.25;;;;;12.00;47.65;101990.28;5076673;28;45648;-77
2022/03/02 01:28:55;;;;;;;;;53.00;42.50;;;;;11.99;47.68;101993.78;5064505;28;45467;-77
2022/03/02 01:31:25;;;;;;;;;52.50;41.00;;;;;11.95;47.73;101990.16;5077072;28;46836;-77
2022/03/02 01:33:51;;;;;;;;;50.75;41.50;;;;;11.91;47.87;101972.41;5070693;28;45346;-76
2022/03/02 01:36:17;;;;;;;;;60.75;44.25;;;;;11.95;47.89;101979.56;5072067;28;45383;-77
2022/03/02 01:38:43;;;;;;;;;51.25;40.50;;;;;11.90;47.34;101977.69;5075034;28;45549;-77
2022/03/02 01:41:09;;;;;;;;;53.75;42.00;;;;;11.91;47.87;101977.69;5067891;28;61218;-77
2022/03/02 01:43:34;;;;;;;;;54.00;39.75;;;;;11.93;47.79;101970.72;5069040;28;45260;-77
2022/03/02 01:45:59;;;;;;;;;56.50;42.75;;;;;11.91;47.90;101975.06;5060214;28;45431;-77
2022/03/02 01:48:25;;;;;;;;;55.00;41.50;;;;;11.85;48.03;101966.09;5077246;28;54920;-77
2022/03/02 01:50:50;;;;;;;;;53.75;41.75;;;;;11.88;47.98;101967.06;5058566;28;64957;-77
2022/03/02 01:53:16;;;;;;;;;56.25;44.00;;;;;11.84;48.01;101959.00;5066425;28;45525;-77
2022/03/02 01:55:41;;;;;;;;;53.25;41.00;;;;;11.88;48.13;101964.41;5069383;28;50474;-77
2022/03/02 01:58:07;;;;;;;;;52.75;41.25;;;;;11.89;47.98;101965.31;5073234;27;49242;-76
2022/03/02 02:00:32;;;;;;;;;53.00;41.50;;;;;11.89;47.99;101960.91;5073919;28;61276;-77
2022/03/02 02:02:57;;;;;;;;;51.75;40.50;;;;;11.85;47.97;101950.22;5070301;28;61014;-77
2022/03/02 02:05:23;;;;;;;;;55.00;44.25;;;;;11.89;48.04;101960.00;5064773;28;45558;-76
2022/03/02 02:07:48;;;;;;;;;53.00;40.75;;;;;11.88;48.24;101955.56;5076611;28;45695;-77
2022/03/02 02:10:14;;;;;;;;;50.75;38.50;;;;;11.87;48.03;101945.81;5070030;28;47441;-77
2022/03/02 02:12:39;;;;;;;;;52.00;41.00;;;;;11.85;48.04;101942.25;5069952;28;49140;-77
2022/03/02 02:15:05;;;;;;;;;55.50;42.50;;;;;11.78;47.83;101942.09;5074911;28;45372;-77
2022/03/02 02:17:33;;;;;;;;;52.00;40.00;;;;;11.82;48.07;101939.53;5060634;28;45335;-77
2022/03/02 02:20:00;;;;;;;;;59.25;43.25;;;;;11.77;48.15;101948.25;5070411;28;45590;-77
2022/03/02 02:22:25;;;;;;;;;55.25;41.75;;;;;11.78;47.94;101949.13;5069707;28;60936;-77
2022/03/02 02:24:51;;;;;;;;;52.25;40.00;;;;;11.72;48.27;101934.00;5073183;28;58170;-77
2022/03/02 02:27:18;;;;;;;;;46.00;39.25;;;;;11.72;48.19;101931.38;5058522;28;45470;-77
2022/03/02 02:29:45;;;;;;;;;58.25;43.00;;;;;11.74;48.16;101927.00;5036415;28;47562;-77
2022/03/02 02:32:10;;;;;;;;;52.25;40.25;;;;;11.74;48.04;101926.09;5071214;28;45496;-77
2022/03/02 02:34:36;;;;;;;;;48.50;39.00;;;;;11.69;48.25;101911.88;5073885;28;57497;-77
2022/03/02 02:37:05;;;;;;;;;52.25;40.50;;;;;11.68;48.29;101912.72;5073619;28;54213;-77
2022/03/02 02:39:31;;;;;;;;;54.50;41.25;;;;;11.70;48.17;101919.84;5076742;28;47520;-77
2022/03/02 02:42:02;;;;;;;;;51.75;38.75;;;;;11.70;48.28;101921.59;5074517;28;60302;-77
2022/03/02 02:44:28;;;;;;;;;52.25;41.75;;;;;11.63;48.09;101909.97;5067856;28;45460;-77
2022/03/02 02:46:53;;;;;;;;;43.75;37.00;;;;;11.64;48.22;101908.22;5068789;28;47376;-77
2022/03/02 02:49:18;;;;;;;;;51.00;40.25;;;;;11.61;48.19;101905.50;5069128;28;59387;-77
2022/03/02 02:51:45;;;;;;;;;53.50;43.00;;;;;11.55;48.25;101899.19;5069024;28;58589;-77
2022/03/02 02:54:10;;;;;;;;;51.75;41.50;;;;;11.51;48.31;101892.06;5072095;28;56562;-77
2022/03/02 02:56:36;;;;;;;;;53.75;41.50;;;;;11.47;48.33;101881.38;5071629;28;48003;-77
2022/03/02 02:59:02;;;;;;;;;48.50;38.00;;;;;11.42;48.39;101886.53;5074304;28;46417;-77
2022/03/02 03:01:28;;;;;;;;;53.50;40.75;;;;;11.39;48.59;101885.56;5069083;28;45391;-77
2022/03/02 03:03:53;;;;;;;;;53.25;39.00;;;;;11.37;48.47;101884.66;5175842;22;45837;-77
2022/03/02 03:06:19;;;;;;;;;41.75;38.00;;;;;11.33;48.54;101888.06;5056356;28;46257;-77
2022/03/02 03:08:44;;;;;;;;;46.75;38.75;;;;;11.30;48.62;101875.69;5055991;28;63141;-77
2022/03/02 03:11:09;;;;;;;;;47.25;38.50;;;;;11.28;48.73;101869.44;5055537;28;59173;-78
2022/03/02 03:13:35;;;;;;;;;46.50;39.00;;;;;11.26;48.71;101869.41;5064291;28;52888;-77
2022/03/02 03:16:00;;;;;;;;;45.75;37.25;;;;;11.24;48.61;101863.19;5068151;28;51125;-77
2022/03/02 03:18:25;;;;;;;;;43.00;38.50;;;;;11.22;48.76;101874.56;5070384;28;65462;-77
2022/03/02 03:20:51;;;;;;;;;48.00;37.75;;;;;11.21;48.70;101873.69;5057741;28;45240;-78
2022/03/02 03:23:16;;;;;;;;;53.75;38.00;;;;;11.19;48.58;101877.16;5055781;28;56667;-77
2022/03/02 03:25:41;;;;;;;;;56.25;41.75;;;;;11.12;48.53;101868.16;5055657;28;54837;-77
2022/03/02 03:28:07;;;;;;;;;52.50;37.25;;;;;11.13;48.65;101875.25;5062971;28;57602;-77
2022/03/02 03:30:32;;;;;;;;;50.25;38.00;;;;;11.11;48.81;101870.78;5064158;28;45425;-77
2022/03/02 03:32:58;;;;;;;;;49.00;36.00;;;;;11.10;48.73;101882.19;5055417;28;45307;-77
2022/03/02 03:35:25;;;;;;;;;43.75;36.00;;;;;11.00;48.80;101863.47;5056111;28;45450;-77
2022/03/02 03:37:50;;;;;;;;;47.00;35.00;;;;;11.06;48.85;101878.56;5066218;28;46547;-77
2022/03/02 03:40:16;;;;;;;;;52.00;38.25;;;;;11.04;48.91;101866.19;5070036;28;45488;-76
2022/03/02 03:42:41;;;;;;;;;48.25;38.75;;;;;11.04;48.80;101866.19;5064581;28;45390;-77
2022/03/02 03:45:07;;;;;;;;;53.75;37.75;;;;;11.02;48.96;101869.69;5055966;28;45640;-77
2022/03/02 03:47:34;;;;;;;;;42.00;37.75;;;;;11.01;48.94;101853.78;5058916;28;47098;-77
2022/03/02 03:49:59;;;;;;;;;46.00;39.25;;;;;11.02;48.94;101864.41;5070105;28;45565;-77
2022/03/02 03:52:25;;;;;;;;;46.50;38.00;;;;;10.99;48.78;101851.09;5057234;28;45508;-77
2022/03/02 03:54:50;;;;;;;;;49.00;39.50;;;;;11.01;48.78;101852.03;5061799;28;45563;-77
2022/03/02 03:57:16;;;;;;;;;47.75;37.75;;;;;11.02;48.86;101850.28;5067583;28;46418;-77
2022/03/02 03:59:41;;;;;;;;;54.25;38.50;;;;;11.00;48.83;101852.88;5054685;28;59356;-77
2022/03/02 04:02:06;;;;;;;;;47.00;38.00;;;;;11.01;49.00;101851.13;5055002;28;49735;-77
2022/03/02 04:04:32;;;;;;;;;52.00;36.75;;;;;11.00;48.87;101852.00;5017095;28;1160082;-78
2022/03/02 04:06:58;;;;;;;;;48.50;38.50;;;;;11.00;48.93;101852.00;5066245;28;46239;-77
2022/03/02 04:09:23;;;;;;;;;44.25;36.25;;;;;10.99;49.08;101850.22;5069846;28;58553;-77
2022/03/02 04:11:48;;;;;;;;;49.75;40.50;;;;;10.97;49.16;101846.63;5056549;28;55188;-77
2022/03/02 04:14:14;;;;;;;;;53.25;39.00;;;;;10.93;48.96;101837.75;5056963;28;45525;-77
2022/03/02 04:16:39;;;;;;;;;51.75;42.50;;;;;10.96;49.09;101844.84;5057010;28;46474;-77
2022/03/02 04:19:05;;;;;;;;;46.00;36.75;;;;;10.95;49.30;101849.22;5056004;28;60768;-77
2022/03/02 04:21:31;;;;;;;;;51.00;39.00;;;;;10.94;49.21;101846.56;5056304;28;45500;-77
2022/03/02 04:23:56;;;;;;;;;53.00;39.50;;;;;10.93;49.17;101850.94;5073304;28;45513;-77
2022/03/02 04:26:21;;;;;;;;;52.75;41.00;;;;;10.92;49.11;101837.69;5055550;28;61984;-77
2022/03/02 04:28:47;;;;;;;;;56.00;41.75;;;;;10.87;48.89;101842.88;5056091;28;54666;-77
2022/03/02 04:31:12;;;;;;;;;49.75;38.75;;;;;10.88;49.04;101831.44;5055947;28;58198;-77
2022/03/02 04:33:38;;;;;;;;;50.25;38.25;;;;;10.89;48.89;101827.94;5038127;28;55236;-77
2022/03/02 04:36:04;;;;;;;;;50.00;40.00;;;;;10.86;48.88;101835.78;5056059;28;46484;-77
2022/03/02 04:38:29;;;;;;;;;51.00;39.75;;;;;10.89;48.98;101832.34;5061357;28;45434;-77
2022/03/02 04:40:54;;;;;;;;;53.25;41.75;;;;;10.88;48.88;101827.91;5060389;28;57498;-77
2022/03/02 04:43:20;;;;;;;;;50.75;40.50;;;;;10.88;48.78;101826.16;5060861;28;45409;-77
2022/03/02 04:45:45;;;;;;;;;53.00;42.25;;;;;10.88;49.00;101822.63;5041596;28;50219;-77
2022/03/02 04:48:10;;;;;;;;;50.50;38.50;;;;;10.87;49.00;101819.09;5059283;28;62396;-77
2022/03/02 04:50:36;;;;;;;;;43.50;35.25;;;;;10.87;48.79;101824.38;5059792;28;45315;-77
2022/03/02 04:53:02;;;;;;;;;47.75;35.50;;;;;10.88;48.96;101826.16;5059208;28;45375;-77
2022/03/02 04:55:27;;;;;;;;;46.25;35.00;;;;;10.87;48.89;101823.50;5058234;28;46425;-76
2022/03/02 04:57:56;;;;;;;;;50.50;39.25;;;;;10.87;48.75;101827.03;5059263;28;59307;-77
2022/03/02 05:00:25;;;;;;;;;53.75;43.00;;;;;10.85;48.64;101817.25;5061368;28;45635;-77
2022/03/02 05:02:50;;;;;;;;;47.25;39.00;;;;;10.90;48.74;101818.25;5073504;28;45243;-77
2022/03/02 05:05:18;;;;;;;;;48.00;35.50;;;;;10.87;48.80;101811.16;5065883;28;59910;-77
2022/03/02 05:07:43;;;;;;;;;49.50;37.75;;;;;10.92;48.75;101827.09;5066373;28;45346;-77
2022/03/02 05:10:09;;;;;;;;;45.75;38.25;;;;;10.92;48.75;101817.47;5059774;28;45533;-77
2022/03/02 05:12:34;;;;;;;;;45.25;38.75;;;;;10.94;48.86;101815.75;5073028;28;45312;-77
2022/03/02 05:15:00;;;;;;;;;59.75;41.00;;;;;10.96;48.71;101810.47;5066382;28;46374;-77
2022/03/02 05:17:25;;;;;;;;;51.75;40.50;;;;;10.97;48.73;101805.25;5059159;28;45288;-77
2022/03/02 05:19:51;;;;;;;;;53.75;39.75;;;;;10.96;48.92;101808.72;5060586;28;45473;-76
2022/03/02 05:22:17;;;;;;;;;48.25;39.00;;;;;10.99;48.55;101803.53;5059381;28;45476;-77
2022/03/02 05:24:42;;;;;;;;;55.50;39.25;;;;;11.01;48.70;101801.81;5050626;28;46442;-77
2022/03/02 05:27:08;;;;;;;;;52.25;35.25;;;;;11.01;48.59;101806.22;5071243;28;60121;-77
2022/03/02 05:29:34;;;;;;;;;47.75;39.50;;;;;11.01;48.84;101799.16;5069985;28;45351;-77
2022/03/02 05:31:59;;;;;;;;;55.50;41.50;;;;;10.96;48.68;101787.59;5066983;28;45556;-77
2022/03/02 05:34:25;;;;;;;;;57.00;42.25;;;;;11.00;48.64;101789.47;5055072;28;60888;-77
2022/03/02 05:36:50;;;;;;;;;56.25;45.50;;;;;11.01;48.73;101793.88;5071411;28;50089;-77
2022/03/02 05:39:16;;;;;;;;;54.75;40.25;;;;;11.00;48.64;101789.47;5071352;28;45246;-76
2022/03/02 05:41:41;;;;;;;;;57.25;41.50;;;;;10.99;48.58;101787.69;5069294;28;45718;-77
2022/03/02 05:44:08;;;;;;;;;51.50;40.25;;;;;10.97;48.57;101783.19;5074358;28;47714;-77
2022/03/02 05:46:34;;;;;;;;;49.50;39.50;;;;;10.97;48.63;101789.41;5060097;28;45443;-77
2022/03/02 05:49:00;;;;;;;;;52.25;38.00;;;;;10.98;48.63;101793.84;5071683;28;45273;-77
2022/03/02 05:51:25;;;;;;;;;47.25;37.75;;;;;10.97;48.72;101791.13;5070768;28;45412;-77
2022/03/02 05:53:51;;;;;;;;;49.75;38.75;;;;;10.94;48.56;101786.69;5059433;28;47989;-76
2022/03/02 05:56:16;;;;;;;;;48.25;38.50;;;;;10.93;48.75;101782.25;5074150;28;45436;-77
2022/03/02 05:58:42;;;;;;;;;45.50;38.25;;;;;10.94;48.74;101789.31;5063810;28;45445;-77
2022/03/02 06:01:07;;;;;;;;;56.00;37.25;;;;;10.93;48.83;101781.34;5064417;28;55889;-77
2022/03/02 06:03:33;;;;;;;;;47.00;36.00;;;;;10.92;48.54;101783.13;5058516;28;47490;-76
2022/03/02 06:05:59;;;;;;;;;54.00;38.25;;;;;10.91;48.78;101781.31;5058555;28;45455;-77
2022/03/02 06:08:24;;;;;;;;;53.25;40.50;;;;;10.89;48.43;101780.38;5058694;28;45909;-76
2022/03/02 06:10:49;;;;;;;;;44.00;38.75;;;;;10.89;48.80;101793.59;5061685;28;45375;-77
2022/03/02 06:13:15;;;;;;;;;49.00;38.25;;;;;10.90;48.76;101783.91;5059505;28;47360;-77
2022/03/02 06:15:42;;;;;;;;;54.50;39.25;;;;;10.89;48.78;101787.41;5053967;28;45407;-77
2022/03/02 06:18:07;;;;;;;;;48.50;38.25;;;;;10.88;48.65;101789.16;5069391;28;45422;-77
2022/03/02 06:20:33;;;;;;;;;54.00;38.25;;;;;10.89;48.73;101793.59;5074915;28;45635;-77
2022/03/02 06:22:59;;;;;;;;;48.00;38.75;;;;;10.87;48.65;101784.75;5053632;28;45641;-78
2022/03/02 06:25:25;;;;;;;;;53.25;41.75;;;;;10.84;48.69;101776.72;5068645;28;46055;-78
2022/03/02 06:27:51;;;;;;;;;53.75;40.75;;;;;10.86;48.64;101788.22;5068452;28;45679;-77
2022/03/02 06:30:16;;;;;;;;;50.75;39.00;;;;;10.85;48.49;101777.63;5072225;28;45568;-77
2022/03/02 06:32:42;;;;;;;;;43.75;36.00;;;;;10.82;48.41;101777.56;5039817;28;47922;-77
2022/03/02 06:35:07;;;;;;;;;52.25;39.25;;;;;10.83;48.54;101776.69;5038403;28;59722;-77
2022/03/02 06:37:34;;;;;;;;;47.00;38.00;;;;;10.81;48.51;101776.63;5059427;28;45547;-77
2022/03/02 06:40:10;;;;;;;;;54.75;40.75;;;;;10.85;48.59;101781.16;5072314;28;45759;-77
2022/03/02 06:42:44;;;;;;;;;57.25;39.00;;;;;10.86;48.80;101789.97;5070337;28;47378;-77
2022/03/02 06:45:12;;;;;;;;;56.75;44.75;;;;;10.81;48.77;101774.00;5065193;28;45392;-77
2022/03/02 06:47:41;;;;;;;;;51.50;39.25;;;;;10.85;48.75;101797.00;5073732;28;45410;-77
2022/03/02 06:50:11;;;;;;;;;55.50;39.75;;;;;10.84;48.82;101786.41;5044388;28;45969;-77
2022/03/02 06:52:43;;;;;;;;;50.00;40.00;;;;;10.87;48.53;101794.41;5062151;28;46735;-77
2022/03/02 06:55:16;;;;;;;;;50.25;36.25;;;;;10.87;48.55;101795.31;5067395;28;46011;-77
2022/03/02 06:57:51;;;;;;;;;53.50;43.75;;;;;10.87;48.82;101795.31;5058390;28;45572;-78
2022/03/02 07:00:16;;;;;;;;;47.00;39.25;;;;;10.87;48.64;101792.66;5038160;28;45453;-78
2022/03/02 07:02:48;;;;;;;;;53.50;40.50;;;;;10.88;48.50;101790.91;5057220;28;48241;-78
2022/03/02 07:05:13;;;;;;;;;51.00;39.25;;;;;10.89;48.75;101798.00;5058038;28;45488;-79
2022/03/02 07:07:39;;;;;;;;;54.75;40.25;;;;;10.89;48.58;101790.94;5039923;28;45483;-78
2022/03/02 07:10:05;;;;;;;;;50.75;38.50;;;;;10.91;48.41;101799.78;5068430;28;45166;-78
2022/03/02 07:12:31;;;;;;;;;52.75;42.25;;;;;10.92;48.63;101796.31;5042574;28;47892;-78
2022/03/02 07:14:57;;;;;;;;;53.50;38.25;;;;;10.88;48.57;101785.63;5057697;28;45453;-78
2022/03/02 07:17:23;;;;;;;;;52.75;42.00;;;;;10.95;48.68;101796.38;5043995;28;45194;-78
2022/03/02 07:19:48;;;;;;;;;53.00;41.25;;;;;10.98;48.74;101800.88;5039930;28;45694;-78
2022/03/02 07:22:16;;;;;;;;;40.50;37.75;;;;;10.96;48.54;101795.53;5054518;28;47618;-77
2022/03/02 07:24:49;;;;;;;;;45.50;36.00;;;;;11.03;48.68;101801.88;5054508;28;45877;-76
2022/03/02 07:27:15;;;;;;;;;51.50;39.25;;;;;11.04;48.64;101801.00;5036797;28;45444;-79
2022/03/02 07:29:51;;;;;;;;;52.75;38.25;;;;;11.08;48.61;101800.25;5048723;28;45572;-78
2022/03/02 07:32:36;;;;;;;;;57.75;41.00;;;;;11.09;48.22;101799.38;5058003;28;46596;-79
2022/03/02 07:35:03;;;;;;;;;48.25;40.00;;;;;11.16;48.26;101803.06;5043760;28;45576;-80
2022/03/02 07:37:29;;;;;;;;;52.50;39.75;;;;;11.14;48.49;101792.47;5056803;28;45508;-79
2022/03/02 07:39:55;;;;;;;;;54.75;41.50;;;;;11.21;48.22;101789.09;5053598;28;45533;-78
2022/03/02 07:42:20;;;;;;;;;50.00;38.50;;;;;11.23;48.30;101799.69;5055246;28;46011;-78
2022/03/02 07:44:49;;;;;;;;;49.50;37.50;;;;;11.21;48.04;101783.81;5056193;28;46736;-78
2022/03/02 07:47:15;;;;;;;;;49.00;38.00;;;;;11.23;48.02;101786.47;5054160;28;45446;-79
2022/03/02 07:52:13;;;;;;;;;46.25;38.75;;;;;11.34;48.01;101784.06;4953613;22;45942;-79
2022/03/02 07:54:39;;;;;;;;;50.25;40.00;;;;;11.37;48.15;101785.06;5073367;28;46295;-79
2022/03/02 07:57:06;;;;;;;;;44.75;38.00;;;;;11.42;48.00;101780.75;5074955;28;45640;-80
2022/03/02 07:59:34;;;;;;;;;48.25;38.25;;;;;11.43;48.08;101779.91;5073964;28;45583;-79
2022/03/02 08:02:00;;;;;;;;;53.00;40.00;;;;;11.52;47.88;101788.06;5073807;28;46796;-79
2022/03/02 08:04:25;;;;;;;;;54.75;39.75;;;;;11.54;47.76;101775.75;5074232;28;55042;-79
2022/03/02 08:06:51;;;;;;;;;54.50;41.75;;;;;11.61;47.83;101782.09;5033172;28;55766;-78
2022/03/02 08:09:16;;;;;;;;;48.00;39.25;;;;;11.60;47.88;101777.63;5040815;28;45487;-79
2022/03/02 08:11:41;;;;;;;;;51.25;38.00;;;;;11.74;47.61;101791.16;5071833;28;61001;-80
2022/03/02 08:14:07;;;;;;;;;59.50;45.00;;;;;11.78;47.77;101785.09;5055283;28;45545;-78
2022/03/02 08:16:33;;;;;;;;;56.25;42.50;;;;;11.83;47.38;101793.16;5074528;28;45410;-78
2022/03/02 08:19:00;;;;;;;;;52.75;39.75;;;;;11.87;47.33;101787.94;5075131;28;45488;-78
2022/03/02 08:21:28;;;;;;;;;52.25;39.25;;;;;11.91;47.04;101792.44;5073046;28;46618;-76
2022/03/02 08:23:54;;;;;;;;;50.75;39.00;;;;;11.95;47.20;101794.28;5057319;28;45553;-76
2022/03/02 08:26:20;;;;;;;;;54.00;38.00;;;;;11.96;47.16;101777.56;5074680;28;45527;-79
2022/03/02 08:28:45;;;;;;;;;48.25;35.75;;;;;12.05;47.03;101784.81;5074894;28;45593;-77
2022/03/02 08:31:12;;;;;;;;;50.50;39.50;;;;;12.07;46.76;101778.66;5056635;28;46723;-77
2022/03/02 08:33:37;;;;;;;;;54.25;40.50;;;;;12.09;46.63;101786.66;5056772;28;45462;-80
2022/03/02 08:36:03;;;;;;;;;50.75;39.00;;;;;12.14;46.96;101789.38;5053844;28;45438;-78
2022/03/02 08:38:28;;;;;;;;;49.50;39.25;;;;;12.18;46.30;101785.91;5038083;28;45411;-76
2022/03/02 08:40:54;;;;;;;;;50.00;38.00;;;;;12.17;46.48;101776.19;5074697;28;46376;-78
2022/03/02 08:43:20;;;;;;;;;55.00;40.50;;;;;12.26;46.46;101786.97;5056319;28;45903;-77
2022/03/02 08:45:46;;;;;;;;;48.50;37.50;;;;;12.30;46.51;101792.38;5069113;27;45660;-76
2022/03/02 08:48:14;;;;;;;;;50.75;38.25;;;;;12.32;46.51;101776.50;5069621;27;45608;-77
2022/03/02 08:50:39;;;;;;;;;51.50;38.75;;;;;12.36;45.21;101785.38;5073108;27;46315;-77
2022/03/02 08:53:05;;;;;;;;;51.25;39.00;;;;;12.37;45.47;101785.44;5038629;28;45484;-78
2022/03/02 08:55:31;;;;;;;;;50.25;38.00;;;;;12.29;44.61;101785.25;5048103;27;53694;-79
2022/03/02 08:57:57;;;;;;;;;56.25;43.25;;;;;12.26;45.39;101777.28;5071567;27;45828;-78
2022/03/02 09:00:22;;;;;;;;;47.75;38.25;;;;;12.20;45.68;101773.63;5072315;28;47452;-79
2022/03/02 09:02:47;;;;;;;;;53.50;41.00;;;;;12.30;45.70;101783.50;5036278;28;58462;-82
2022/03/02 09:05:13;;;;;;;;;47.25;39.25;;;;;12.30;45.63;101773.84;5073872;27;46312;-78
2022/03/02 09:07:38;;;;;;;;;46.00;38.00;;;;;12.33;45.68;101778.28;5072817;27;45859;-82
2022/03/02 09:10:04;;;;;;;;;49.25;38.00;;;;;12.38;45.72;101776.63;5050880;27;47573;-78
2022/03/02 09:12:30;;;;;;;;;49.50;39.25;;;;;12.43;45.59;101764.34;5069944;27;45602;-77
2022/03/02 09:14:55;;;;;;;;;51.00;39.50;;;;;12.46;45.50;101764.38;5072863;28;54792;-79
2022/03/02 09:17:24;;;;;;;;;52.50;40.50;;;;;12.52;45.55;101764.53;5057829;28;45502;-78
2022/03/02 09:19:50;;;;;;;;;47.00;40.00;;;;;12.60;45.58;101767.28;5076923;27;45869;-77
2022/03/02 09:22:15;;;;;;;;;43.75;37.75;;;;;12.59;45.50;101755.81;5056422;28;45340;-78
2022/03/02 09:24:42;;;;;;;;;58.50;44.00;;;;;12.71;45.17;101754.22;5071883;28;56497;-77
2022/03/02 09:27:08;;;;;;;;;56.00;45.00;;;;;12.74;45.44;101754.28;5069741;27;46008;-77
2022/03/02 09:29:34;;;;;;;;;55.00;43.25;;;;;12.85;45.22;101755.38;5057381;28;45584;-78
2022/03/02 09:31:59;;;;;;;;;51.50;41.00;;;;;12.94;44.98;101762.56;5040473;27;45519;-77
2022/03/02 09:34:26;;;;;;;;;49.50;39.25;;;;;13.03;44.90;101760.94;5075624;27;45567;-77
2022/03/02 09:36:51;;;;;;;;;53.75;42.75;;;;;13.10;44.66;101752.25;5075522;27;46282;-79
2022/03/02 09:39:17;;;;;;;;;53.00;39.50;;;;;13.18;44.90;101751.47;5044687;28;46044;-78
2022/03/02 09:41:49;;;;;;;;;58.00;42.50;;;;;13.26;44.40;101763.09;5076434;27;45552;-76
2022/03/02 09:44:14;;;;;;;;;48.00;37.50;;;;;13.32;44.41;101765.84;5071542;28;45493;-76
2022/03/02 09:46:39;;;;;;;;;45.75;37.25;;;;;13.36;44.19;101757.06;5075926;27;54335;-76
2022/03/02 09:49:09;;;;;;;;;47.50;38.50;;;;;13.41;44.30;101759.78;5076632;27;55422;-77
2022/03/02 09:51:35;;;;;;;;;52.75;39.50;;;;;13.46;43.88;101750.13;5073685;27;45558;-76
2022/03/02 09:54:02;;;;;;;;;40.00;35.50;;;;;13.51;42.56;101759.03;5075120;27;45437;-78
2022/03/02 09:56:29;;;;;;;;;53.00;40.00;;;;;13.50;43.89;101760.81;5058334;28;46305;-79
2022/03/02 09:58:55;;;;;;;;;51.25;40.00;;;;;13.53;43.18;101757.28;5057620;28;47350;-81
2022/03/02 10:01:22;;;;;;;;;52.00;40.50;;;;;13.56;43.78;101762.66;5076140;27;52356;-80
2022/03/02 10:03:48;;;;;;;;;51.75;40.25;;;;;13.61;43.74;101752.97;5069141;27;45576;-81
2022/03/02 10:06:13;;;;;;;;;53.50;41.75;;;;;13.63;43.59;101745.91;5073609;28;45591;-82
2022/03/02 10:08:47;;;;;;;;;53.25;40.50;;;;;13.60;43.34;101735.28;5056983;28;62001;-84
2022/03/02 10:11:14;;;;;;;;;53.00;43.00;;;;;13.67;42.91;101746.88;5050835;28;45409;-81
2022/03/02 10:13:39;;;;;;;;;55.25;43.00;;;;;13.73;43.57;101749.59;5054593;28;45506;-80
2022/03/02 10:16:05;;;;;;;;;54.00;44.00;;;;;13.82;43.27;101750.59;5056523;27;57564;-83
2022/03/02 10:18:34;;;;;;;;;52.75;40.50;;;;;13.91;43.14;101741.88;5075274;27;47625;-77
2022/03/02 10:21:00;;;;;;;;;53.50;43.25;;;;;13.95;43.49;101738.34;5075562;28;45886;-78
2022/03/02 10:23:32;;;;;;;;;52.50;37.75;;;;;14.05;43.13;101732.28;5075612;27;45368;-80
2022/03/02 10:26:23;;;;;;;;;60.25;44.00;;;;;14.12;43.17;101733.25;5076086;27;45694;-77
2022/03/02 10:29:03;;;;;;;;;57.25;45.50;;;;;14.22;43.50;101734.22;5071917;27;47536;-77
2022/03/02 10:31:31;;;;;;;;;55.25;42.00;;;;;14.31;43.26;101742.28;5073837;28;45544;-76
2022/03/02 10:34:19;;;;;;;;;60.00;45.00;;;;;14.38;43.43;101728.19;5074072;27;45584;-77
2022/03/02 10:36:45;;;;;;;;;54.50;43.00;;;;;14.48;43.27;101715.91;5075998;27;45460;-77
2022/03/02 10:39:19;;;;;;;;;58.50;45.25;;;;;14.62;43.21;101724.91;5074327;28;47823;-77
2022/03/02 10:41:45;;;;;;;;;52.00;42.00;;;;;14.71;43.25;101721.47;5041708;28;45538;-77
2022/03/02 10:44:43;;;;;;;;;51.25;38.00;;;;;14.81;43.25;101715.34;5057148;28;58657;-76
2022/03/02 10:47:09;;;;;;;;;54.00;40.25;;;;;14.88;42.15;101712.72;5057180;28;45459;-75
2022/03/02 10:49:35;;;;;;;;;53.00;42.25;;;;;14.88;42.31;101706.53;5035915;28;46085;-78
2022/03/02 10:52:00;;;;;;;;;52.75;39.25;;;;;14.98;42.02;101707.47;5057992;28;45430;-76
2022/03/02 10:54:26;;;;;;;;;52.00;42.00;;;;;15.02;42.22;101704.84;5069862;27;48830;-77
2022/03/02 10:56:54;;;;;;;;;57.50;38.75;;;;;15.04;41.59;101700.44;5040290;28;50857;-78
2022/03/02 10:59:23;;;;;;;;;51.75;39.50;;;;;15.05;41.85;101691.56;5071429;28;46359;-78
2022/03/02 11:01:50;;;;;;;;;53.25;42.00;;;;;15.13;41.56;101696.94;5074194;28;46225;-78
2022/03/02 11:04:20;;;;;;;;;52.00;40.75;;;;;15.15;41.61;101696.06;5075443;28;45462;-79
2022/03/02 11:06:46;;;;;;;;;55.50;43.00;;;;;15.16;41.44;101680.97;5040022;28;45431;-78
2022/03/02 11:09:11;;;;;;;;;54.25;43.50;;;;;15.20;42.03;101686.34;5054923;28;65605;-78